sensor_id;sensor_type;location;lat;lon;timestamp;P1;durP1;ratioP1;P2;durP2;ratioP2
47089;SDS011;32840;52.516;13.294;2023-06-10T00:02:14;10.63;;;5.00;;
47089;SDS011;32840;52.516;13.294;2023-06-10T00:05:01;9.35;;;4.90;;
47089;SDS011;32840;52.516;13.294;2023-06-10T00:07:46;12.75;;;5.68;;
47089;SDS011;32840;52.516;13.294;2023-06-10T00:10:32;9.88;;;5.57;;
47089;SDS011;32840;52.516;13.294;2023-06-10T00:13:21;12.63;;;5.40;;
47089;SDS011;32840;52.516;13.294;2023-06-10T00:16:05;12.43;;;4.80;;
47089;SDS011;32840;52.516;13.294;2023-06-10T00:18:50;11.07;;;5.15;;
47089;SDS011;32840;52.516;13.294;2023-06-10T00:21:35;12.38;;;4.88;;
47089;SDS011;32840;52.516;13.294;2023-06-10T00:24:24;8.20;;;5.18;;
47089;SDS011;32840;52.516;13.294;2023-06-10T00:27:08;13.70;;;5.53;;
47089;SDS011;32840;52.516;13.294;2023-06-10T00:29:53;14.32;;;5.55;;
47089;SDS011;32840;52.516;13.294;2023-06-10T00:32:38;7.97;;;5.07;;
47089;SDS011;32840;52.516;13.294;2023-06-10T00:35:23;10.75;;;4.65;;
47089;SDS011;32840;52.516;13.294;2023-06-10T00:38:08;14.93;;;5.47;;
47089;SDS011;32840;52.516;13.294;2023-06-10T00:40:53;9.95;;;4.50;;
47089;SDS011;32840;52.516;13.294;2023-06-10T00:43:38;9.63;;;4.32;;
47089;SDS011;32840;52.516;13.294;2023-06-10T00:46:24;11.65;;;5.20;;
47089;SDS011;32840;52.516;13.294;2023-06-10T00:49:10;10.93;;;4.88;;
47089;SDS011;32840;52.516;13.294;2023-06-10T00:51:55;10.57;;;4.80;;
47089;SDS011;32840;52.516;13.294;2023-06-10T00:54:40;13.45;;;5.75;;
47089;SDS011;32840;52.516;13.294;2023-06-10T00:57:25;9.50;;;4.43;;
47089;SDS011;32840;52.516;13.294;2023-06-10T01:00:11;12.05;;;4.93;;
47089;SDS011;32840;52.516;13.294;2023-06-10T01:02:56;12.27;;;5.15;;
47089;SDS011;32840;52.516;13.294;2023-06-10T01:05:41;12.13;;;5.47;;
47089;SDS011;32840;52.516;13.294;2023-06-10T01:08:35;10.88;;;4.55;;
47089;SDS011;32840;52.516;13.294;2023-06-10T01:11:34;10.43;;;4.88;;
47089;SDS011;32840;52.516;13.294;2023-06-10T01:14:26;13.23;;;5.18;;
47089;SDS011;32840;52.516;13.294;2023-06-10T01:17:12;14.35;;;5.25;;
47089;SDS011;32840;52.516;13.294;2023-06-10T01:20:00;14.60;;;5.40;;
47089;SDS011;32840;52.516;13.294;2023-06-10T01:22:56;10.35;;;5.03;;
47089;SDS011;32840;52.516;13.294;2023-06-10T01:26:04;10.18;;;5.22;;
47089;SDS011;32840;52.516;13.294;2023-06-10T01:28:54;11.70;;;5.05;;
47089;SDS011;32840;52.516;13.294;2023-06-10T01:34:43;8.73;;;4.35;;
47089;SDS011;32840;52.516;13.294;2023-06-10T01:37:28;14.80;;;5.70;;
47089;SDS011;32840;52.516;13.294;2023-06-10T01:40:15;12.55;;;5.68;;
47089;SDS011;32840;52.516;13.294;2023-06-10T01:43:01;12.82;;;5.05;;
47089;SDS011;32840;52.516;13.294;2023-06-10T01:45:46;12.75;;;5.15;;
47089;SDS011;32840;52.516;13.294;2023-06-10T01:48:31;10.02;;;4.93;;
47089;SDS011;32840;52.516;13.294;2023-06-10T01:51:16;13.40;;;4.95;;
47089;SDS011;32840;52.516;13.294;2023-06-10T01:54:01;10.18;;;4.63;;
47089;SDS011;32840;52.516;13.294;2023-06-10T01:56:46;13.25;;;4.60;;
47089;SDS011;32840;52.516;13.294;2023-06-10T01:59:31;13.55;;;5.93;;
47089;SDS011;32840;52.516;13.294;2023-06-10T02:02:16;12.27;;;5.28;;
47089;SDS011;32840;52.516;13.294;2023-06-10T02:05:00;12.23;;;5.32;;
47089;SDS011;32840;52.516;13.294;2023-06-10T02:07:45;10.77;;;4.88;;
47089;SDS011;32840;52.516;13.294;2023-06-10T02:10:30;11.07;;;4.82;;
47089;SDS011;32840;52.516;13.294;2023-06-10T02:13:15;13.73;;;5.40;;
47089;SDS011;32840;52.516;13.294;2023-06-10T02:16:00;12.05;;;5.32;;
47089;SDS011;32840;52.516;13.294;2023-06-10T02:18:45;11.75;;;4.95;;
47089;SDS011;32840;52.516;13.294;2023-06-10T02:21:30;12.90;;;4.68;;
47089;SDS011;32840;52.516;13.294;2023-06-10T02:24:15;11.93;;;5.65;;
47089;SDS011;32840;52.516;13.294;2023-06-10T02:27:00;12.60;;;5.22;;
47089;SDS011;32840;52.516;13.294;2023-06-10T02:29:46;12.18;;;4.93;;
47089;SDS011;32840;52.516;13.294;2023-06-10T02:32:30;12.23;;;5.45;;
47089;SDS011;32840;52.516;13.294;2023-06-10T02:35:16;9.40;;;4.68;;
47089;SDS011;32840;52.516;13.294;2023-06-10T02:38:01;12.52;;;4.90;;
47089;SDS011;32840;52.516;13.294;2023-06-10T02:40:46;13.38;;;5.40;;
47089;SDS011;32840;52.516;13.294;2023-06-10T02:43:31;10.13;;;5.10;;
47089;SDS011;32840;52.516;13.294;2023-06-10T02:46:16;14.90;;;5.35;;
47089;SDS011;32840;52.516;13.294;2023-06-10T02:49:00;10.55;;;5.07;;
47089;SDS011;32840;52.516;13.294;2023-06-10T02:51:45;10.30;;;5.15;;
47089;SDS011;32840;52.516;13.294;2023-06-10T02:54:30;13.18;;;5.18;;
47089;SDS011;32840;52.516;13.294;2023-06-10T02:57:15;10.50;;;5.25;;
47089;SDS011;32840;52.516;13.294;2023-06-10T03:00:00;16.55;;;5.18;;
47089;SDS011;32840;52.516;13.294;2023-06-10T03:02:45;13.07;;;5.82;;
47089;SDS011;32840;52.516;13.294;2023-06-10T03:05:31;13.15;;;5.63;;
47089;SDS011;32840;52.516;13.294;2023-06-10T03:08:16;9.75;;;4.82;;
47089;SDS011;32840;52.516;13.294;2023-06-10T03:11:01;10.90;;;5.18;;
47089;SDS011;32840;52.516;13.294;2023-06-10T03:13:46;15.43;;;6.22;;
47089;SDS011;32840;52.516;13.294;2023-06-10T03:16:31;12.98;;;5.20;;
47089;SDS011;32840;52.516;13.294;2023-06-10T03:19:16;11.02;;;5.18;;
47089;SDS011;32840;52.516;13.294;2023-06-10T03:22:08;11.93;;;5.72;;
47089;SDS011;32840;52.516;13.294;2023-06-10T03:24:57;12.70;;;5.32;;
47089;SDS011;32840;52.516;13.294;2023-06-10T03:27:43;13.70;;;5.43;;
47089;SDS011;32840;52.516;13.294;2023-06-10T03:30:28;14.50;;;5.45;;
47089;SDS011;32840;52.516;13.294;2023-06-10T03:33:13;12.10;;;5.20;;
47089;SDS011;32840;52.516;13.294;2023-06-10T03:35:58;13.05;;;5.80;;
47089;SDS011;32840;52.516;13.294;2023-06-10T03:38:43;15.48;;;6.13;;
47089;SDS011;32840;52.516;13.294;2023-06-10T03:41:28;13.02;;;6.10;;
47089;SDS011;32840;52.516;13.294;2023-06-10T03:44:13;14.55;;;5.88;;
47089;SDS011;32840;52.516;13.294;2023-06-10T03:46:58;13.00;;;5.72;;
47089;SDS011;32840;52.516;13.294;2023-06-10T03:49:44;12.30;;;5.80;;
47089;SDS011;32840;52.516;13.294;2023-06-10T03:52:29;12.30;;;6.05;;
47089;SDS011;32840;52.516;13.294;2023-06-10T03:55:14;12.45;;;5.63;;
47089;SDS011;32840;52.516;13.294;2023-06-10T03:58:01;12.27;;;6.35;;
47089;SDS011;32840;52.516;13.294;2023-06-10T04:00:46;13.68;;;5.80;;
47089;SDS011;32840;52.516;13.294;2023-06-10T04:03:31;12.02;;;6.35;;
47089;SDS011;32840;52.516;13.294;2023-06-10T04:06:17;11.65;;;6.20;;
47089;SDS011;32840;52.516;13.294;2023-06-10T04:09:02;16.23;;;6.15;;
47089;SDS011;32840;52.516;13.294;2023-06-10T04:11:47;10.75;;;6.00;;
47089;SDS011;32840;52.516;13.294;2023-06-10T04:14:32;14.32;;;6.72;;
47089;SDS011;32840;52.516;13.294;2023-06-10T04:17:17;12.57;;;6.28;;
47089;SDS011;32840;52.516;13.294;2023-06-10T04:20:02;13.35;;;6.65;;
47089;SDS011;32840;52.516;13.294;2023-06-10T04:22:50;11.70;;;6.22;;
47089;SDS011;32840;52.516;13.294;2023-06-10T04:25:35;12.18;;;6.25;;
47089;SDS011;32840;52.516;13.294;2023-06-10T04:28:20;11.95;;;5.93;;
47089;SDS011;32840;52.516;13.294;2023-06-10T04:31:05;11.90;;;6.55;;
47089;SDS011;32840;52.516;13.294;2023-06-10T04:33:50;11.30;;;6.15;;
47089;SDS011;32840;52.516;13.294;2023-06-10T04:36:35;10.68;;;5.63;;
47089;SDS011;32840;52.516;13.294;2023-06-10T04:39:20;11.57;;;6.80;;
47089;SDS011;32840;52.516;13.294;2023-06-10T04:42:05;11.43;;;6.30;;
47089;SDS011;32840;52.516;13.294;2023-06-10T04:44:50;12.93;;;6.05;;
47089;SDS011;32840;52.516;13.294;2023-06-10T04:47:35;12.50;;;6.10;;
47089;SDS011;32840;52.516;13.294;2023-06-10T04:50:20;13.75;;;6.22;;
47089;SDS011;32840;52.516;13.294;2023-06-10T04:53:05;14.55;;;5.80;;
47089;SDS011;32840;52.516;13.294;2023-06-10T04:55:52;12.77;;;6.95;;
47089;SDS011;32840;52.516;13.294;2023-06-10T04:58:37;15.88;;;7.35;;
47089;SDS011;32840;52.516;13.294;2023-06-10T05:01:22;15.10;;;6.97;;
47089;SDS011;32840;52.516;13.294;2023-06-10T05:04:08;13.35;;;6.88;;
47089;SDS011;32840;52.516;13.294;2023-06-10T05:06:52;16.75;;;9.75;;
47089;SDS011;32840;52.516;13.294;2023-06-10T05:09:37;12.82;;;6.60;;
47089;SDS011;32840;52.516;13.294;2023-06-10T05:12:22;12.48;;;6.80;;
47089;SDS011;32840;52.516;13.294;2023-06-10T05:15:07;14.30;;;6.72;;
47089;SDS011;32840;52.516;13.294;2023-06-10T05:17:53;10.73;;;6.35;;
47089;SDS011;32840;52.516;13.294;2023-06-10T05:20:38;14.15;;;6.88;;
47089;SDS011;32840;52.516;13.294;2023-06-10T05:23:23;15.65;;;7.05;;
47089;SDS011;32840;52.516;13.294;2023-06-10T05:26:10;11.52;;;6.82;;
47089;SDS011;32840;52.516;13.294;2023-06-10T05:28:55;12.32;;;7.15;;
47089;SDS011;32840;52.516;13.294;2023-06-10T05:31:40;14.90;;;7.05;;
47089;SDS011;32840;52.516;13.294;2023-06-10T05:34:26;14.90;;;7.78;;
47089;SDS011;32840;52.516;13.294;2023-06-10T05:37:10;14.93;;;7.00;;
47089;SDS011;32840;52.516;13.294;2023-06-10T05:39:56;17.23;;;6.93;;
47089;SDS011;32840;52.516;13.294;2023-06-10T05:42:41;14.63;;;6.90;;
47089;SDS011;32840;52.516;13.294;2023-06-10T05:45:27;14.68;;;6.85;;
47089;SDS011;32840;52.516;13.294;2023-06-10T05:48:11;14.25;;;6.78;;
47089;SDS011;32840;52.516;13.294;2023-06-10T05:50:56;13.70;;;6.18;;
47089;SDS011;32840;52.516;13.294;2023-06-10T05:53:42;11.57;;;6.85;;
47089;SDS011;32840;52.516;13.294;2023-06-10T05:56:26;12.25;;;7.00;;
47089;SDS011;32840;52.516;13.294;2023-06-10T05:59:11;14.60;;;6.40;;
47089;SDS011;32840;52.516;13.294;2023-06-10T06:01:58;12.50;;;6.90;;
47089;SDS011;32840;52.516;13.294;2023-06-10T06:04:42;17.83;;;7.40;;
47089;SDS011;32840;52.516;13.294;2023-06-10T06:07:27;18.10;;;6.80;;
47089;SDS011;32840;52.516;13.294;2023-06-10T06:10:12;17.08;;;6.95;;
47089;SDS011;32840;52.516;13.294;2023-06-10T06:12:57;14.80;;;7.28;;
47089;SDS011;32840;52.516;13.294;2023-06-10T06:15:42;12.00;;;6.97;;
47089;SDS011;32840;52.516;13.294;2023-06-10T06:18:27;12.75;;;6.97;;
47089;SDS011;32840;52.516;13.294;2023-06-10T06:21:12;14.30;;;7.63;;
47089;SDS011;32840;52.516;13.294;2023-06-10T06:23:59;12.00;;;7.07;;
47089;SDS011;32840;52.516;13.294;2023-06-10T06:26:44;14.30;;;7.18;;
47089;SDS011;32840;52.516;13.294;2023-06-10T06:29:29;13.23;;;6.82;;
47089;SDS011;32840;52.516;13.294;2023-06-10T06:32:14;8.65;;;6.25;;
47089;SDS011;32840;52.516;13.294;2023-06-10T06:34:59;13.35;;;6.72;;
47089;SDS011;32840;52.516;13.294;2023-06-10T06:37:44;10.60;;;7.13;;
47089;SDS011;32840;52.516;13.294;2023-06-10T06:40:29;17.05;;;7.53;;
47089;SDS011;32840;52.516;13.294;2023-06-10T06:43:14;14.32;;;6.57;;
47089;SDS011;32840;52.516;13.294;2023-06-10T06:45:59;12.25;;;6.70;;
47089;SDS011;32840;52.516;13.294;2023-06-10T06:48:44;11.52;;;6.68;;
47089;SDS011;32840;52.516;13.294;2023-06-10T06:51:29;11.73;;;7.22;;
47089;SDS011;32840;52.516;13.294;2023-06-10T06:54:13;14.73;;;7.05;;
47089;SDS011;32840;52.516;13.294;2023-06-10T06:56:58;11.13;;;6.75;;
47089;SDS011;32840;52.516;13.294;2023-06-10T06:59:43;16.02;;;6.95;;
47089;SDS011;32840;52.516;13.294;2023-06-10T07:02:28;14.50;;;6.82;;
47089;SDS011;32840;52.516;13.294;2023-06-10T07:05:13;11.05;;;6.97;;
47089;SDS011;32840;52.516;13.294;2023-06-10T07:07:58;11.27;;;7.00;;
47089;SDS011;32840;52.516;13.294;2023-06-10T07:10:43;11.32;;;6.85;;
47089;SDS011;32840;52.516;13.294;2023-06-10T07:13:28;12.43;;;7.25;;
47089;SDS011;32840;52.516;13.294;2023-06-10T07:16:13;12.25;;;7.25;;
47089;SDS011;32840;52.516;13.294;2023-06-10T07:18:59;11.20;;;6.60;;
47089;SDS011;32840;52.516;13.294;2023-06-10T07:21:44;12.13;;;6.93;;
47089;SDS011;32840;52.516;13.294;2023-06-10T07:24:29;14.20;;;7.35;;
47089;SDS011;32840;52.516;13.294;2023-06-10T07:27:14;14.05;;;8.40;;
47089;SDS011;32840;52.516;13.294;2023-06-10T07:29:59;11.20;;;6.68;;
47089;SDS011;32840;52.516;13.294;2023-06-10T07:32:45;11.55;;;7.20;;
47089;SDS011;32840;52.516;13.294;2023-06-10T07:35:30;12.90;;;7.07;;
47089;SDS011;32840;52.516;13.294;2023-06-10T07:38:16;11.63;;;7.13;;
47089;SDS011;32840;52.516;13.294;2023-06-10T07:41:01;13.45;;;7.85;;
47089;SDS011;32840;52.516;13.294;2023-06-10T07:43:46;11.98;;;7.50;;
47089;SDS011;32840;52.516;13.294;2023-06-10T07:46:31;12.80;;;7.97;;
47089;SDS011;32840;52.516;13.294;2023-06-10T07:49:16;18.27;;;8.32;;
47089;SDS011;32840;52.516;13.294;2023-06-10T07:52:01;10.50;;;7.32;;
47089;SDS011;32840;52.516;13.294;2023-06-10T07:54:46;13.80;;;7.68;;
47089;SDS011;32840;52.516;13.294;2023-06-10T07:57:31;14.85;;;8.25;;
47089;SDS011;32840;52.516;13.294;2023-06-10T08:00:19;10.57;;;7.38;;
47089;SDS011;32840;52.516;13.294;2023-06-10T08:03:04;10.63;;;7.28;;
47089;SDS011;32840;52.516;13.294;2023-06-10T08:05:49;14.48;;;7.60;;
47089;SDS011;32840;52.516;13.294;2023-06-10T08:08:35;12.60;;;6.78;;
47089;SDS011;32840;52.516;13.294;2023-06-10T08:11:24;13.10;;;7.90;;
47089;SDS011;32840;52.516;13.294;2023-06-10T08:14:11;14.20;;;7.88;;
47089;SDS011;32840;52.516;13.294;2023-06-10T08:16:56;11.15;;;7.40;;
47089;SDS011;32840;52.516;13.294;2023-06-10T08:19:41;11.63;;;7.57;;
47089;SDS011;32840;52.516;13.294;2023-06-10T08:22:26;14.75;;;8.23;;
47089;SDS011;32840;52.516;13.294;2023-06-10T08:25:13;12.98;;;8.43;;
47089;SDS011;32840;52.516;13.294;2023-06-10T08:27:58;13.48;;;7.85;;
47089;SDS011;32840;52.516;13.294;2023-06-10T08:30:43;13.30;;;8.20;;
47089;SDS011;32840;52.516;13.294;2023-06-10T08:33:28;11.88;;;7.78;;
47089;SDS011;32840;52.516;13.294;2023-06-10T08:36:13;12.93;;;8.32;;
47089;SDS011;32840;52.516;13.294;2023-06-10T08:38:58;12.85;;;7.90;;
47089;SDS011;32840;52.516;13.294;2023-06-10T08:41:43;13.30;;;7.93;;
47089;SDS011;32840;52.516;13.294;2023-06-10T08:44:33;15.63;;;7.78;;
47089;SDS011;32840;52.516;13.294;2023-06-10T08:47:23;13.23;;;9.90;;
47089;SDS011;32840;52.516;13.294;2023-06-10T08:50:09;12.20;;;7.75;;
47089;SDS011;32840;52.516;13.294;2023-06-10T08:52:54;8.75;;;6.90;;
47089;SDS011;32840;52.516;13.294;2023-06-10T08:55:42;13.90;;;7.82;;
47089;SDS011;32840;52.516;13.294;2023-06-10T08:58:28;14.77;;;8.20;;
47089;SDS011;32840;52.516;13.294;2023-06-10T09:01:13;11.35;;;6.53;;
47089;SDS011;32840;52.516;13.294;2023-06-10T09:04:01;11.30;;;6.65;;
47089;SDS011;32840;52.516;13.294;2023-06-10T09:06:46;11.10;;;8.05;;
47089;SDS011;32840;52.516;13.294;2023-06-10T09:09:33;18.63;;;8.23;;
47089;SDS011;32840;52.516;13.294;2023-06-10T09:12:19;16.67;;;7.70;;
47089;SDS011;32840;52.516;13.294;2023-06-10T09:15:05;13.30;;;7.38;;
47089;SDS011;32840;52.516;13.294;2023-06-10T09:17:51;11.30;;;7.15;;
47089;SDS011;32840;52.516;13.294;2023-06-10T09:20:36;12.23;;;7.10;;
47089;SDS011;32840;52.516;13.294;2023-06-10T09:23:22;14.07;;;7.07;;
47089;SDS011;32840;52.516;13.294;2023-06-10T09:26:08;15.23;;;7.78;;
47089;SDS011;32840;52.516;13.294;2023-06-10T09:29:05;13.57;;;8.45;;
47089;SDS011;32840;52.516;13.294;2023-06-10T09:34:40;11.73;;;7.78;;
47089;SDS011;32840;52.516;13.294;2023-06-10T09:37:25;15.23;;;8.63;;
47089;SDS011;32840;52.516;13.294;2023-06-10T09:40:11;13.35;;;8.35;;
47089;SDS011;32840;52.516;13.294;2023-06-10T09:42:57;15.38;;;8.27;;
47089;SDS011;32840;52.516;13.294;2023-06-10T09:45:43;12.98;;;7.53;;
47089;SDS011;32840;52.516;13.294;2023-06-10T09:48:28;9.23;;;7.47;;
47089;SDS011;32840;52.516;13.294;2023-06-10T09:51:14;12.43;;;6.82;;
47089;SDS011;32840;52.516;13.294;2023-06-10T09:54:04;11.50;;;7.30;;
47089;SDS011;32840;52.516;13.294;2023-06-10T09:56:49;14.35;;;7.88;;
47089;SDS011;32840;52.516;13.294;2023-06-10T09:59:37;14.23;;;7.70;;
47089;SDS011;32840;52.516;13.294;2023-06-10T10:02:22;15.50;;;7.75;;
47089;SDS011;32840;52.516;13.294;2023-06-10T10:05:07;15.13;;;7.43;;
47089;SDS011;32840;52.516;13.294;2023-06-10T10:07:52;16.75;;;7.63;;
47089;SDS011;32840;52.516;13.294;2023-06-10T10:10:37;11.35;;;7.95;;
47089;SDS011;32840;52.516;13.294;2023-06-10T10:13:22;13.30;;;8.52;;
47089;SDS011;32840;52.516;13.294;2023-06-10T10:16:11;11.32;;;8.13;;
47089;SDS011;32840;52.516;13.294;2023-06-10T10:19:05;14.27;;;7.70;;
47089;SDS011;32840;52.516;13.294;2023-06-10T10:21:54;14.18;;;7.50;;
47089;SDS011;32840;52.516;13.294;2023-06-10T10:24:42;13.68;;;8.48;;
47089;SDS011;32840;52.516;13.294;2023-06-10T10:27:40;17.63;;;7.78;;
47089;SDS011;32840;52.516;13.294;2023-06-10T10:33:43;17.02;;;8.32;;
47089;SDS011;32840;52.516;13.294;2023-06-10T10:36:38;12.00;;;7.40;;
47089;SDS011;32840;52.516;13.294;2023-06-10T10:39:23;16.40;;;10.43;;
47089;SDS011;32840;52.516;13.294;2023-06-10T10:42:10;11.77;;;6.53;;
47089;SDS011;32840;52.516;13.294;2023-06-10T10:44:56;11.18;;;6.28;;
47089;SDS011;32840;52.516;13.294;2023-06-10T10:47:42;9.32;;;5.50;;
47089;SDS011;32840;52.516;13.294;2023-06-10T10:50:29;7.45;;;6.20;;
47089;SDS011;32840;52.516;13.294;2023-06-10T10:53:19;6.75;;;5.45;;
47089;SDS011;32840;52.516;13.294;2023-06-10T10:56:05;7.65;;;5.55;;
47089;SDS011;32840;52.516;13.294;2023-06-10T10:59:02;7.85;;;5.57;;
47089;SDS011;32840;52.516;13.294;2023-06-10T11:01:49;9.32;;;6.00;;
47089;SDS011;32840;52.516;13.294;2023-06-10T11:04:34;9.95;;;5.40;;
47089;SDS011;32840;52.516;13.294;2023-06-10T11:07:22;6.63;;;5.18;;
47089;SDS011;32840;52.516;13.294;2023-06-10T11:10:12;6.25;;;5.38;;
47089;SDS011;32840;52.516;13.294;2023-06-10T11:12:57;10.27;;;7.05;;
47089;SDS011;32840;52.516;13.294;2023-06-10T11:15:46;9.13;;;5.80;;
47089;SDS011;32840;52.516;13.294;2023-06-10T11:18:40;7.32;;;5.60;;
47089;SDS011;32840;52.516;13.294;2023-06-10T11:21:25;8.98;;;5.55;;
47089;SDS011;32840;52.516;13.294;2023-06-10T11:24:13;9.38;;;6.88;;
47089;SDS011;32840;52.516;13.294;2023-06-10T11:27:14;11.07;;;6.07;;
47089;SDS011;32840;52.516;13.294;2023-06-10T11:32:46;13.80;;;6.95;;
47089;SDS011;32840;52.516;13.294;2023-06-10T11:35:35;9.27;;;5.65;;
47089;SDS011;32840;52.516;13.294;2023-06-10T11:38:20;7.15;;;5.43;;
47089;SDS011;32840;52.516;13.294;2023-06-10T11:41:06;10.15;;;8.48;;
47089;SDS011;32840;52.516;13.294;2023-06-10T11:43:52;10.02;;;5.85;;
47089;SDS011;32840;52.516;13.294;2023-06-10T11:46:38;8.00;;;5.97;;
47089;SDS011;32840;52.516;13.294;2023-06-10T11:49:24;6.47;;;5.57;;
47089;SDS011;32840;52.516;13.294;2023-06-10T11:52:09;17.00;;;12.40;;
47089;SDS011;32840;52.516;13.294;2023-06-10T11:54:55;7.55;;;5.82;;
47089;SDS011;32840;52.516;13.294;2023-06-10T11:57:40;6.63;;;5.20;;
47089;SDS011;32840;52.516;13.294;2023-06-10T12:00:25;6.15;;;5.55;;
47089;SDS011;32840;52.516;13.294;2023-06-10T12:03:10;14.98;;;10.70;;
47089;SDS011;32840;52.516;13.294;2023-06-10T12:05:56;7.90;;;5.20;;
47089;SDS011;32840;52.516;13.294;2023-06-10T12:08:50;11.82;;;5.85;;
47089;SDS011;32840;52.516;13.294;2023-06-10T12:11:35;8.90;;;5.35;;
47089;SDS011;32840;52.516;13.294;2023-06-10T12:17:43;10.00;;;6.03;;
47089;SDS011;32840;52.516;13.294;2023-06-10T12:20:28;8.57;;;6.45;;
47089;SDS011;32840;52.516;13.294;2023-06-10T12:23:17;7.85;;;6.82;;
47089;SDS011;32840;52.516;13.294;2023-06-10T12:26:03;8.77;;;7.03;;
47089;SDS011;32840;52.516;13.294;2023-06-10T12:28:50;12.05;;;6.75;;
47089;SDS011;32840;52.516;13.294;2023-06-10T12:31:51;7.95;;;6.47;;
47089;SDS011;32840;52.516;13.294;2023-06-10T12:34:43;9.90;;;6.32;;
47089;SDS011;32840;52.516;13.294;2023-06-10T12:37:28;7.07;;;5.55;;
47089;SDS011;32840;52.516;13.294;2023-06-10T12:40:13;7.30;;;6.20;;
47089;SDS011;32840;52.516;13.294;2023-06-10T12:42:58;8.27;;;5.68;;
47089;SDS011;32840;52.516;13.294;2023-06-10T12:45:43;6.55;;;5.93;;
47089;SDS011;32840;52.516;13.294;2023-06-10T12:48:29;7.80;;;6.28;;
47089;SDS011;32840;52.516;13.294;2023-06-10T12:51:13;9.32;;;7.20;;
47089;SDS011;32840;52.516;13.294;2023-06-10T12:53:59;8.63;;;6.03;;
47089;SDS011;32840;52.516;13.294;2023-06-10T12:56:44;12.15;;;6.47;;
47089;SDS011;32840;52.516;13.294;2023-06-10T12:59:28;9.88;;;6.55;;
47089;SDS011;32840;52.516;13.294;2023-06-10T13:02:13;8.10;;;6.60;;
47089;SDS011;32840;52.516;13.294;2023-06-10T13:04:58;7.78;;;6.47;;
47089;SDS011;32840;52.516;13.294;2023-06-10T13:07:43;11.73;;;7.57;;
47089;SDS011;32840;52.516;13.294;2023-06-10T13:10:28;9.70;;;8.02;;
47089;SDS011;32840;52.516;13.294;2023-06-10T13:13:13;10.93;;;7.10;;
47089;SDS011;32840;52.516;13.294;2023-06-10T13:15:59;9.73;;;7.90;;
47089;SDS011;32840;52.516;13.294;2023-06-10T13:18:45;13.35;;;7.97;;
47089;SDS011;32840;52.516;13.294;2023-06-10T13:21:31;8.50;;;7.70;;
47089;SDS011;32840;52.516;13.294;2023-06-10T13:24:17;13.23;;;8.07;;
47089;SDS011;32840;52.516;13.294;2023-06-10T13:27:02;11.10;;;8.40;;
47089;SDS011;32840;52.516;13.294;2023-06-10T13:29:47;11.63;;;8.38;;
47089;SDS011;32840;52.516;13.294;2023-06-10T13:32:32;15.57;;;8.95;;
47089;SDS011;32840;52.516;13.294;2023-06-10T13:35:17;10.80;;;8.00;;
47089;SDS011;32840;52.516;13.294;2023-06-10T13:38:02;11.23;;;8.52;;
47089;SDS011;32840;52.516;13.294;2023-06-10T13:40:47;12.10;;;8.85;;
47089;SDS011;32840;52.516;13.294;2023-06-10T13:43:32;9.80;;;8.38;;
47089;SDS011;32840;52.516;13.294;2023-06-10T13:46:17;11.07;;;8.07;;
47089;SDS011;32840;52.516;13.294;2023-06-10T13:49:02;12.73;;;8.38;;
47089;SDS011;32840;52.516;13.294;2023-06-10T13:51:47;10.40;;;8.05;;
47089;SDS011;32840;52.516;13.294;2023-06-10T13:54:32;10.48;;;7.25;;
47089;SDS011;32840;52.516;13.294;2023-06-10T13:57:18;10.82;;;7.43;;
47089;SDS011;32840;52.516;13.294;2023-06-10T14:00:02;8.80;;;7.78;;
47089;SDS011;32840;52.516;13.294;2023-06-10T14:02:48;14.10;;;7.93;;
47089;SDS011;32840;52.516;13.294;2023-06-10T14:05:32;11.38;;;7.85;;
47089;SDS011;32840;52.516;13.294;2023-06-10T14:08:18;15.00;;;8.43;;
47089;SDS011;32840;52.516;13.294;2023-06-10T14:11:04;9.55;;;7.57;;
47089;SDS011;32840;52.516;13.294;2023-06-10T14:13:48;11.25;;;7.38;;
47089;SDS011;32840;52.516;13.294;2023-06-10T14:16:33;15.55;;;8.43;;
47089;SDS011;32840;52.516;13.294;2023-06-10T14:19:18;9.13;;;6.30;;
47089;SDS011;32840;52.516;13.294;2023-06-10T14:22:03;11.32;;;7.63;;
47089;SDS011;32840;52.516;13.294;2023-06-10T14:24:48;9.98;;;7.85;;
47089;SDS011;32840;52.516;13.294;2023-06-10T14:27:33;10.90;;;7.95;;
47089;SDS011;32840;52.516;13.294;2023-06-10T14:30:18;9.65;;;7.95;;
47089;SDS011;32840;52.516;13.294;2023-06-10T14:33:03;13.07;;;7.22;;
47089;SDS011;32840;52.516;13.294;2023-06-10T14:35:49;7.65;;;6.85;;
47089;SDS011;32840;52.516;13.294;2023-06-10T14:38:34;7.75;;;6.10;;
47089;SDS011;32840;52.516;13.294;2023-06-10T14:41:19;7.80;;;5.95;;
47089;SDS011;32840;52.516;13.294;2023-06-10T14:44:04;8.73;;;6.07;;
47089;SDS011;32840;52.516;13.294;2023-06-10T14:46:49;9.32;;;6.57;;
47089;SDS011;32840;52.516;13.294;2023-06-10T14:49:34;7.28;;;6.07;;
47089;SDS011;32840;52.516;13.294;2023-06-10T14:52:18;10.43;;;6.63;;
47089;SDS011;32840;52.516;13.294;2023-06-10T14:55:04;8.45;;;6.85;;
47089;SDS011;32840;52.516;13.294;2023-06-10T14:57:49;9.15;;;6.25;;
47089;SDS011;32840;52.516;13.294;2023-06-10T15:00:34;9.73;;;6.43;;
47089;SDS011;32840;52.516;13.294;2023-06-10T15:03:19;9.55;;;6.28;;
47089;SDS011;32840;52.516;13.294;2023-06-10T15:06:03;9.27;;;6.45;;
47089;SDS011;32840;52.516;13.294;2023-06-10T15:08:48;9.10;;;6.35;;
47089;SDS011;32840;52.516;13.294;2023-06-10T15:11:33;7.97;;;6.03;;
47089;SDS011;32840;52.516;13.294;2023-06-10T15:14:18;18.92;;;5.72;;
47089;SDS011;32840;52.516;13.294;2023-06-10T15:17:03;10.02;;;5.88;;
47089;SDS011;32840;52.516;13.294;2023-06-10T15:19:48;10.43;;;6.32;;
47089;SDS011;32840;52.516;13.294;2023-06-10T15:22:33;10.20;;;5.88;;
47089;SDS011;32840;52.516;13.294;2023-06-10T15:25:18;8.75;;;6.03;;
47089;SDS011;32840;52.516;13.294;2023-06-10T15:28:03;6.45;;;5.55;;
47089;SDS011;32840;52.516;13.294;2023-06-10T15:30:49;6.88;;;5.85;;
47089;SDS011;32840;52.516;13.294;2023-06-10T15:33:33;11.80;;;6.03;;
47089;SDS011;32840;52.516;13.294;2023-06-10T15:36:18;8.98;;;5.63;;
47089;SDS011;32840;52.516;13.294;2023-06-10T15:39:04;10.77;;;6.32;;
47089;SDS011;32840;52.516;13.294;2023-06-10T15:41:50;10.13;;;6.18;;
47089;SDS011;32840;52.516;13.294;2023-06-10T15:44:35;12.88;;;6.60;;
47089;SDS011;32840;52.516;13.294;2023-06-10T15:47:20;11.50;;;6.28;;
47089;SDS011;32840;52.516;13.294;2023-06-10T15:50:05;8.82;;;5.97;;
47089;SDS011;32840;52.516;13.294;2023-06-10T15:52:50;7.85;;;6.07;;
47089;SDS011;32840;52.516;13.294;2023-06-10T15:55:35;9.13;;;6.18;;
47089;SDS011;32840;52.516;13.294;2023-06-10T15:58:21;12.60;;;6.63;;
47089;SDS011;32840;52.516;13.294;2023-06-10T16:01:06;11.98;;;6.60;;
47089;SDS011;32840;52.516;13.294;2023-06-10T16:03:52;10.32;;;5.95;;
47089;SDS011;32840;52.516;13.294;2023-06-10T16:06:37;10.50;;;6.45;;
47089;SDS011;32840;52.516;13.294;2023-06-10T16:09:22;8.88;;;5.93;;
47089;SDS011;32840;52.516;13.294;2023-06-10T16:12:07;11.23;;;6.20;;
47089;SDS011;32840;52.516;13.294;2023-06-10T16:14:52;9.25;;;7.20;;
47089;SDS011;32840;52.516;13.294;2023-06-10T16:17:37;8.48;;;6.80;;
47089;SDS011;32840;52.516;13.294;2023-06-10T16:20:21;9.00;;;6.43;;
47089;SDS011;32840;52.516;13.294;2023-06-10T16:23:06;8.25;;;5.78;;
47089;SDS011;32840;52.516;13.294;2023-06-10T16:25:51;9.77;;;6.05;;
47089;SDS011;32840;52.516;13.294;2023-06-10T16:28:36;10.02;;;6.22;;